createdAt,value
2022-11-30T00:01:30.677Z,8.94
2022-11-30T00:03:58.198Z,8.61
2022-11-30T00:06:25.469Z,9.48
2022-11-30T00:08:55.642Z,9.05
2022-11-30T00:11:23.685Z,9.40
2022-11-30T00:13:51.032Z,9.60
2022-11-30T00:16:18.389Z,9.57
2022-11-30T00:18:45.887Z,9.41
2022-11-30T00:21:13.777Z,9.01
2022-11-30T00:23:41.675Z,8.55
2022-11-30T00:26:10.908Z,9.03
2022-11-30T00:28:38.339Z,8.22
2022-11-30T00:31:06.669Z,7.76
2022-11-30T00:33:34.934Z,8.11
2022-11-30T00:36:03.701Z,7.86
2022-11-30T00:38:34.366Z,8.16
2022-11-30T00:41:02.152Z,7.55
2022-11-30T00:43:29.404Z,7.73
2022-11-30T00:45:57.437Z,7.73
2022-11-30T00:48:24.975Z,8.19
2022-11-30T00:50:52.322Z,8.07
2022-11-30T00:53:19.789Z,7.88
2022-11-30T00:55:47.671Z,8.13
2022-11-30T00:58:14.886Z,8.08
2022-11-30T01:00:42.105Z,8.31
2022-11-30T01:03:09.822Z,7.88
2022-11-30T01:05:37.075Z,8.33
2022-11-30T01:08:05.387Z,8.12
2022-11-30T01:10:36.041Z,8.31
2022-11-30T01:13:03.641Z,8.56
2022-11-30T01:15:30.945Z,7.91
2022-11-30T01:18:01.372Z,8.81
2022-11-30T01:20:28.634Z,8.14
2022-11-30T01:22:55.889Z,9.30
2022-11-30T01:25:23.450Z,9.41
2022-11-30T01:27:50.866Z,9.34
2022-11-30T01:30:18.334Z,9.31
2022-11-30T01:32:45.814Z,8.63
2022-11-30T01:35:12.980Z,8.66
2022-11-30T01:37:40.175Z,8.89
2022-11-30T01:40:07.899Z,9.55
2022-11-30T01:42:37.935Z,9.55
2022-11-30T01:45:05.788Z,9.53
2022-11-30T01:47:39.293Z,9.44
2022-11-30T01:50:08.997Z,9.65
2022-11-30T01:52:37.702Z,9.50
2022-11-30T01:55:10.910Z,9.54
2022-11-30T01:57:39.483Z,9.32
2022-11-30T02:00:08.602Z,8.43
2022-11-30T02:02:44.126Z,9.24
2022-11-30T02:05:11.696Z,9.47
2022-11-30T02:07:39.231Z,9.09
2022-11-30T02:10:06.818Z,9.01
2022-11-30T02:12:55.981Z,9.00
2022-11-30T02:15:23.622Z,8.91
2022-11-30T02:17:53.760Z,9.44
2022-11-30T02:20:24.010Z,8.75
2022-11-30T02:23:03.652Z,9.07
2022-11-30T02:25:51.119Z,9.11
2022-11-30T02:28:37.261Z,9.38
2022-11-30T02:31:04.681Z,8.83
2022-11-30T02:33:32.209Z,8.88
2022-11-30T02:35:59.427Z,8.92
2022-11-30T02:38:27.209Z,9.10
2022-11-30T02:40:54.959Z,8.60
2022-11-30T02:43:22.861Z,9.13
2022-11-30T02:45:53.112Z,9.08
2022-11-30T02:48:21.533Z,8.71
2022-11-30T02:50:49.723Z,8.99
2022-11-30T02:53:17.025Z,8.91
2022-11-30T02:55:44.547Z,9.03
2022-11-30T02:58:12.096Z,8.76
2022-11-30T03:00:39.298Z,8.82
2022-11-30T03:03:06.836Z,8.50
2022-11-30T03:05:34.142Z,9.00
2022-11-30T03:08:01.459Z,8.39
2022-11-30T03:10:28.983Z,8.43
2022-11-30T03:12:59.534Z,8.67
2022-11-30T03:15:26.940Z,8.15
2022-11-30T03:17:54.403Z,8.98
2022-11-30T03:20:21.684Z,9.11
2022-11-30T03:22:48.876Z,8.36
2022-11-30T03:25:16.323Z,9.23
2022-11-30T03:27:43.514Z,9.51
2022-11-30T03:30:10.989Z,9.47
2022-11-30T03:32:38.494Z,9.72
2022-11-30T03:35:05.962Z,9.39
2022-11-30T03:37:33.119Z,9.57
2022-11-30T03:40:00.516Z,9.22
2022-11-30T03:42:27.732Z,9.36
2022-11-30T03:44:55.036Z,8.91
2022-11-30T03:47:22.534Z,9.40
2022-11-30T03:49:49.754Z,9.51
2022-11-30T03:52:16.965Z,9.21
2022-11-30T03:54:44.612Z,8.89
2022-11-30T03:57:12.179Z,9.10
2022-11-30T03:59:39.400Z,9.17
2022-11-30T04:02:06.878Z,9.18
2022-11-30T04:04:34.356Z,8.97
2022-11-30T04:07:01.608Z,8.83
2022-11-30T04:09:28.825Z,8.90
2022-11-30T04:11:56.307Z,8.66
2022-11-30T04:14:23.542Z,9.16
2022-11-30T04:16:50.769Z,9.41
2022-11-30T04:19:18.266Z,9.06
2022-11-30T04:21:45.499Z,8.82
2022-11-30T04:24:12.724Z,9.13
2022-11-30T04:26:40.204Z,9.08
2022-11-30T04:29:07.365Z,8.98
2022-11-30T04:31:34.660Z,9.36
2022-11-30T04:34:02.251Z,9.14
2022-11-30T04:36:29.547Z,9.17
2022-11-30T04:38:56.788Z,8.91
2022-11-30T04:41:24.272Z,9.31
2022-11-30T04:43:51.439Z,9.50
2022-11-30T04:46:18.826Z,9.67
2022-11-30T04:48:46.362Z,9.02
2022-11-30T04:51:13.663Z,9.35
2022-11-30T04:53:40.885Z,9.38
2022-11-30T04:56:09.015Z,10.00
2022-11-30T04:58:36.437Z,10.35
2022-11-30T05:01:03.600Z,10.21
2022-11-30T05:03:31.138Z,10.40
2022-11-30T05:05:58.410Z,10.23
2022-11-30T05:08:25.603Z,9.13
2022-11-30T05:10:53.593Z,10.11
2022-11-30T05:13:21.433Z,9.99
2022-11-30T05:15:48.776Z,9.29
2022-11-30T05:18:16.323Z,10.28
2022-11-30T05:20:47.131Z,10.36
2022-11-30T05:23:14.413Z,9.98
2022-11-30T05:25:42.194Z,10.32
2022-11-30T05:28:09.579Z,10.74
2022-11-30T05:30:37.890Z,10.79
2022-11-30T05:33:05.545Z,10.31
2022-11-30T05:35:33.026Z,9.04
2022-11-30T05:38:00.229Z,9.99
2022-11-30T05:40:28.803Z,10.51
2022-11-30T05:42:56.870Z,10.32
2022-11-30T05:45:24.308Z,10.45
2022-11-30T05:47:51.765Z,10.25
2022-11-30T05:50:19.172Z,10.40
2022-11-30T05:52:46.394Z,9.80
2022-11-30T05:55:13.892Z,10.62
2022-11-30T05:57:41.153Z,9.78
2022-11-30T06:00:09.186Z,10.22
2022-11-30T06:02:38.860Z,9.85
2022-11-30T06:05:06.672Z,9.03
2022-11-30T06:07:33.919Z,10.02
2022-11-30T06:10:01.131Z,9.99
2022-11-30T06:12:28.749Z,8.99
2022-11-30T06:14:55.998Z,10.35
2022-11-30T06:17:23.220Z,9.98
2022-11-30T06:19:50.728Z,9.70
2022-11-30T06:22:17.944Z,9.50
2022-11-30T06:24:45.710Z,9.38
2022-11-30T06:27:13.444Z,9.80
2022-11-30T06:29:40.615Z,10.45
2022-11-30T06:32:07.965Z,9.30
2022-11-30T06:34:35.463Z,10.03
2022-11-30T06:37:02.784Z,9.76
2022-11-30T06:39:57.851Z,9.85
2022-11-30T06:42:19.671Z,9.53
2022-11-30T06:44:47.153Z,9.19
2022-11-30T06:47:14.471Z,10.12
2022-11-30T06:49:42.024Z,10.16
2022-11-30T06:52:09.322Z,10.01
2022-11-30T06:54:36.547Z,8.85
2022-11-30T06:57:04.051Z,9.49
2022-11-30T06:59:31.266Z,9.79
2022-11-30T07:02:01.668Z,9.10
2022-11-30T07:04:33.612Z,9.49
2022-11-30T07:07:00.903Z,9.72
2022-11-30T07:09:28.149Z,9.77
2022-11-30T07:11:55.624Z,9.45
2022-11-30T07:14:22.801Z,10.13
2022-11-30T07:16:50.076Z,10.08
2022-11-30T07:19:17.805Z,9.99
2022-11-30T07:21:45.151Z,9.93
2022-11-30T07:24:31.074Z,9.96
2022-11-30T07:27:01.998Z,10.13
2022-11-30T07:29:29.520Z,10.21
2022-11-30T07:31:56.818Z,10.44
2022-11-30T07:34:24.400Z,10.35
2022-11-30T07:36:51.714Z,10.42
2022-11-30T07:39:19.029Z,10.74
2022-11-30T07:41:46.600Z,10.63
2022-11-30T07:44:13.854Z,10.41
2022-11-30T07:46:41.020Z,9.88
2022-11-30T07:49:09.244Z,10.49
2022-11-30T07:51:36.571Z,10.23
2022-11-30T07:54:03.910Z,9.24
2022-11-30T07:56:31.387Z,9.73
2022-11-30T07:58:59.418Z,9.94
2022-11-30T08:01:31.146Z,9.83
2022-11-30T08:03:58.869Z,10.39
2022-11-30T08:06:26.934Z,10.43
2022-11-30T08:08:54.523Z,9.61
2022-11-30T08:11:23.311Z,9.74
2022-11-30T08:13:50.601Z,9.23
2022-11-30T08:16:18.903Z,9.40
2022-11-30T08:18:47.584Z,9.14
2022-11-30T08:21:15.958Z,9.37
2022-11-30T08:23:44.422Z,8.89
2022-11-30T08:26:12.885Z,9.23
2022-11-30T08:28:40.528Z,9.02
2022-11-30T08:31:09.382Z,8.73
2022-11-30T08:33:37.172Z,9.02
2022-11-30T08:36:10.376Z,9.17
2022-11-30T08:38:37.952Z,9.56
2022-11-30T08:41:05.509Z,9.24
2022-11-30T08:43:32.908Z,9.04
2022-11-30T08:46:02.311Z,8.92
2022-11-30T08:48:29.548Z,9.00
2022-11-30T08:51:22.811Z,8.58
2022-11-30T08:53:51.088Z,8.83
2022-11-30T08:56:19.383Z,9.16
2022-11-30T08:58:47.342Z,8.86
2022-11-30T09:01:18.787Z,8.78
2022-11-30T09:03:46.528Z,8.59
2022-11-30T09:06:13.795Z,8.50
2022-11-30T09:08:41.974Z,8.92
2022-11-30T09:11:17.053Z,9.35
2022-11-30T09:13:44.642Z,8.64
2022-11-30T09:16:11.984Z,8.57
2022-11-30T09:18:39.488Z,8.67
2022-11-30T09:21:08.912Z,8.66
2022-11-30T09:23:36.156Z,8.92
2022-11-30T09:26:04.614Z,9.06
2022-11-30T09:28:32.248Z,8.97
2022-11-30T09:31:03.153Z,9.04
2022-11-30T09:33:30.515Z,8.66
2022-11-30T09:36:02.237Z,8.88
2022-11-30T09:38:29.474Z,8.79
2022-11-30T09:40:57.910Z,8.58
2022-11-30T09:43:46.532Z,8.63
2022-11-30T09:46:13.798Z,8.13
2022-11-30T09:49:00.925Z,8.74
2022-11-30T09:51:30.290Z,8.91
2022-11-30T09:54:02.711Z,8.26
2022-11-30T09:56:33.869Z,9.23
2022-11-30T09:59:15.179Z,8.98
2022-11-30T10:01:46.054Z,8.91
2022-11-30T10:04:24.186Z,8.48
2022-11-30T10:07:11.648Z,8.72
2022-11-30T10:09:39.348Z,9.22
2022-11-30T10:12:14.805Z,8.79
2022-11-30T10:14:45.859Z,8.92
2022-11-30T10:17:18.890Z,8.75
2022-11-30T10:20:06.400Z,9.36
2022-11-30T10:22:48.941Z,8.94
2022-11-30T10:25:22.235Z,8.39
2022-11-30T10:27:50.968Z,9.24
2022-11-30T10:30:25.000Z,9.03
2022-11-30T10:32:56.239Z,8.51
2022-11-30T10:35:23.734Z,8.63
2022-11-30T10:37:52.079Z,8.61
2022-11-30T10:40:21.012Z,8.57
2022-11-30T10:42:50.743Z,8.40
2022-11-30T10:45:19.048Z,8.95
2022-11-30T10:47:47.855Z,8.86
2022-11-30T10:50:16.289Z,9.14
2022-11-30T10:52:48.101Z,9.07
2022-11-30T10:55:18.226Z,8.82
2022-11-30T10:57:45.700Z,9.17
2022-11-30T11:00:14.736Z,9.01
2022-11-30T11:02:43.585Z,9.03
2022-11-30T11:05:17.172Z,9.53
2022-11-30T11:07:55.001Z,8.55
2022-11-30T11:10:28.465Z,8.60
2022-11-30T11:12:56.065Z,8.79
2022-11-30T11:15:33.080Z,8.48
2022-11-30T11:18:12.873Z,8.98
2022-11-30T11:20:42.668Z,9.64
2022-11-30T11:23:23.264Z,9.55
2022-11-30T11:25:53.173Z,9.19
2022-11-30T11:28:22.163Z,9.59
2022-11-30T11:30:49.455Z,9.65
2022-11-30T11:33:21.633Z,9.23
2022-11-30T11:35:51.131Z,10.00
2022-11-30T11:38:18.317Z,10.29
2022-11-30T11:40:52.441Z,10.58
2022-11-30T11:43:20.012Z,10.44
2022-11-30T11:45:51.093Z,9.75
2022-11-30T11:48:29.276Z,10.31
2022-11-30T11:51:08.690Z,10.25
2022-11-30T11:53:53.908Z,10.62
2022-11-30T11:56:24.768Z,10.85
2022-11-30T11:59:02.851Z,10.45
2022-11-30T12:01:50.893Z,10.35
2022-11-30T12:04:37.565Z,9.23
2022-11-30T12:07:10.559Z,9.38
2022-11-30T12:09:41.186Z,10.07
2022-11-30T12:12:11.239Z,9.90
2022-11-30T12:14:38.448Z,9.98
2022-11-30T12:17:18.637Z,10.38
2022-11-30T12:19:49.122Z,9.62
2022-11-30T12:22:23.327Z,10.01
2022-11-30T12:25:11.652Z,9.29
2022-11-30T12:27:58.000Z,9.49
2022-11-30T12:30:26.885Z,10.01
2022-11-30T12:33:26.859Z,9.46
2022-11-30T12:36:12.712Z,9.62
2022-11-30T12:38:46.643Z,9.64
2022-11-30T12:41:32.811Z,9.51
2022-11-30T12:44:18.087Z,10.12
2022-11-30T12:46:45.508Z,9.93
2022-11-30T12:49:21.374Z,9.67
2022-11-30T12:52:01.403Z,10.08
2022-11-30T12:54:41.433Z,9.59
2022-11-30T12:57:13.575Z,10.21
2022-11-30T12:59:47.388Z,10.48
2022-11-30T13:02:35.955Z,10.00
2022-11-30T13:05:06.511Z,10.54
2022-11-30T13:07:35.052Z,10.35
2022-11-30T13:10:04.343Z,10.42
2022-11-30T13:12:36.354Z,10.82
2022-11-30T13:15:15.322Z,10.56
2022-11-30T13:17:43.870Z,10.43
2022-11-30T13:20:20.849Z,10.62
2022-11-30T13:23:07.446Z,10.42
2022-11-30T13:26:06.965Z,10.62
2022-11-30T13:28:41.031Z,11.13
2022-11-30T13:31:27.265Z,10.73
2022-11-30T13:33:54.796Z,10.87
2022-11-30T13:36:23.178Z,11.14
2022-11-30T13:39:09.723Z,11.42
2022-11-30T13:41:37.243Z,11.29
2022-11-30T13:44:04.486Z,11.21
2022-11-30T13:46:31.940Z,11.42
2022-11-30T13:49:28.905Z,11.35
2022-11-30T13:52:21.444Z,11.38
2022-11-30T13:54:47.790Z,11.43
2022-11-30T13:57:19.613Z,10.68
2022-11-30T13:59:54.014Z,11.31
2022-11-30T14:05:18.555Z,11.06
2022-11-30T14:07:45.870Z,11.66
2022-11-30T14:10:36.311Z,11.30
2022-11-30T14:13:10.263Z,10.94
2022-11-30T14:15:43.592Z,10.90
2022-11-30T14:18:11.112Z,10.52
2022-11-30T14:20:38.391Z,10.34
2022-11-30T14:23:06.474Z,10.48
2022-11-30T14:25:34.099Z,10.29
2022-11-30T14:28:01.307Z,9.78
2022-11-30T14:30:28.463Z,10.17
2022-11-30T14:32:57.400Z,10.36
2022-11-30T14:35:24.636Z,10.13
2022-11-30T14:37:56.002Z,10.22
2022-11-30T14:40:24.929Z,10.09
2022-11-30T14:43:01.849Z,10.02
2022-11-30T14:45:30.782Z,9.52
2022-11-30T14:48:05.172Z,9.74
2022-11-30T14:50:32.806Z,9.90
2022-11-30T14:53:06.153Z,9.92
2022-11-30T14:55:45.907Z,10.46
2022-11-30T14:58:19.363Z,9.63
2022-11-30T15:00:46.998Z,10.24
2022-11-30T15:03:18.998Z,9.69
2022-11-30T15:05:46.508Z,9.74
2022-11-30T15:08:14.116Z,9.89
2022-11-30T15:10:41.507Z,9.74
2022-11-30T15:13:11.100Z,9.87
2022-11-30T15:15:41.766Z,10.24
2022-11-30T15:18:16.522Z,10.36
2022-11-30T15:20:44.734Z,10.67
2022-11-30T15:23:12.903Z,11.41
2022-11-30T15:25:40.770Z,11.12
2022-11-30T15:28:09.403Z,11.50
2022-11-30T15:30:37.493Z,11.10
2022-11-30T15:33:04.730Z,11.58
2022-11-30T15:35:57.047Z,11.84
2022-11-30T15:38:26.352Z,12.04
2022-11-30T15:41:03.153Z,12.20
2022-11-30T15:43:35.381Z,12.22
2022-11-30T15:46:02.731Z,11.86
2022-11-30T15:48:34.740Z,12.17
2022-11-30T15:51:02.434Z,11.65
2022-11-30T15:53:33.706Z,12.47
2022-11-30T15:56:05.389Z,12.06
2022-11-30T15:58:34.182Z,12.30
2022-11-30T16:01:05.585Z,11.12
2022-11-30T16:03:33.932Z,11.65
2022-11-30T16:06:04.774Z,12.34
2022-11-30T16:08:32.304Z,12.40
2022-11-30T16:11:04.579Z,12.39
2022-11-30T16:13:34.745Z,12.68
2022-11-30T16:16:02.414Z,12.65
2022-11-30T16:18:29.730Z,12.96
2022-11-30T16:21:00.814Z,12.77
2022-11-30T16:23:28.679Z,12.67
2022-11-30T16:25:56.190Z,12.79
2022-11-30T16:28:23.415Z,12.31
2022-11-30T16:30:51.103Z,12.20
2022-11-30T16:33:19.770Z,12.63
2022-11-30T16:36:04.499Z,12.70
2022-11-30T16:38:32.250Z,12.53
2022-11-30T16:41:13.710Z,12.07
2022-11-30T16:43:41.772Z,11.73
2022-11-30T16:46:12.729Z,12.29
2022-11-30T16:48:40.093Z,12.28
2022-11-30T16:51:30.785Z,13.05
2022-11-30T16:53:58.516Z,12.72
2022-11-30T16:56:25.999Z,12.98
2022-11-30T16:58:53.231Z,13.44
2022-11-30T17:01:39.348Z,13.55
2022-11-30T17:04:11.945Z,13.65
2022-11-30T17:06:39.165Z,13.57
2022-11-30T17:09:09.773Z,13.55
2022-11-30T17:11:37.185Z,13.69
2022-11-30T17:14:04.488Z,13.68
2022-11-30T17:16:32.285Z,13.42
2022-11-30T17:18:59.504Z,13.55
2022-11-30T17:21:30.820Z,13.80
2022-11-30T17:23:58.628Z,13.89
2022-11-30T17:26:26.396Z,13.99
2022-11-30T17:28:53.654Z,14.11
2022-11-30T17:31:21.396Z,14.11
2022-11-30T17:33:48.900Z,14.23
2022-11-30T17:36:16.506Z,14.14
2022-11-30T17:38:45.253Z,14.11
2022-11-30T17:41:18.606Z,14.09
2022-11-30T17:43:47.478Z,14.02
2022-11-30T17:46:16.004Z,14.01
2022-11-30T17:48:43.771Z,13.99
2022-11-30T17:51:11.817Z,14.05
2022-11-30T17:53:39.803Z,13.97
2022-11-30T17:56:11.258Z,13.89
2022-11-30T17:58:43.473Z,13.95
2022-11-30T18:01:18.179Z,13.92
2022-11-30T18:03:46.116Z,13.91
2022-11-30T18:06:13.692Z,13.86
2022-11-30T18:08:41.049Z,13.84
2022-11-30T18:11:10.026Z,13.78
2022-11-30T18:13:37.686Z,13.79
2022-11-30T18:16:11.314Z,13.75
2022-11-30T18:18:42.863Z,13.72
2022-11-30T18:21:13.780Z,13.65
2022-11-30T18:23:41.488Z,13.52
2022-11-30T18:26:11.516Z,13.50
2022-11-30T18:28:39.112Z,13.54
2022-11-30T18:31:07.058Z,13.56
2022-11-30T18:33:34.828Z,13.55
2022-11-30T18:36:02.929Z,13.32
2022-11-30T18:38:35.869Z,13.20
2022-11-30T18:41:05.348Z,13.34
2022-11-30T18:43:33.955Z,13.38
2022-11-30T18:46:02.093Z,13.24
2022-11-30T18:48:29.339Z,13.32
2022-11-30T18:50:57.088Z,13.12
2022-11-30T18:53:24.509Z,13.08
2022-11-30T18:55:51.968Z,13.13
2022-11-30T18:58:19.505Z,13.14
2022-11-30T19:00:46.743Z,13.17
2022-11-30T19:03:14.052Z,13.26
2022-11-30T19:05:41.872Z,13.22
2022-11-30T19:08:11.409Z,13.07
2022-11-30T19:10:39.669Z,12.66
2022-11-30T19:13:07.608Z,12.79
2022-11-30T19:15:41.008Z,12.89
2022-11-30T19:18:09.574Z,12.81
2022-11-30T19:20:40.550Z,12.83
2022-11-30T19:23:08.011Z,12.79
2022-11-30T19:25:35.673Z,12.71
2022-11-30T19:28:03.007Z,12.56
2022-11-30T19:30:30.282Z,12.25
2022-11-30T19:32:57.837Z,12.39
2022-11-30T19:35:25.217Z,12.30
2022-11-30T19:37:52.696Z,12.24
2022-11-30T19:40:20.320Z,12.24
2022-11-30T19:42:47.792Z,12.26
2022-11-30T19:45:15.343Z,12.20
2022-11-30T19:47:43.083Z,12.12
2022-11-30T19:50:10.742Z,12.27
2022-11-30T19:52:37.996Z,12.29
2022-11-30T19:55:06.007Z,11.84
2022-11-30T19:57:34.974Z,12.03
2022-11-30T20:00:06.409Z,12.29
2022-11-30T20:02:40.031Z,12.24
2022-11-30T20:05:07.893Z,12.28
2022-11-30T20:07:35.551Z,12.28
2022-11-30T20:10:03.890Z,12.29
2022-11-30T20:12:31.600Z,12.26
2022-11-30T20:14:59.066Z,12.35
2022-11-30T20:17:26.602Z,12.27
2022-11-30T20:19:54.315Z,12.29
2022-11-30T20:22:21.700Z,12.36
2022-11-30T20:24:50.985Z,12.45
2022-11-30T20:27:27.754Z,12.06
2022-11-30T20:29:56.448Z,12.20
2022-11-30T20:32:24.245Z,12.37
2022-11-30T20:34:51.729Z,12.40
2022-11-30T20:37:19.171Z,12.22
2022-11-30T20:39:46.849Z,12.47
2022-11-30T20:42:14.361Z,12.35
2022-11-30T20:44:41.681Z,12.42
2022-11-30T20:47:09.331Z,12.46
2022-11-30T20:49:36.646Z,12.23
2022-11-30T20:52:03.954Z,12.23
2022-11-30T20:54:31.746Z,12.30
2022-11-30T20:56:59.279Z,12.40
2022-11-30T20:59:26.860Z,12.46
2022-11-30T21:01:55.079Z,12.33
2022-11-30T21:04:23.410Z,12.44
2022-11-30T21:06:50.657Z,12.25
2022-11-30T21:09:18.807Z,12.35
2022-11-30T21:11:46.676Z,12.37
2022-11-30T21:14:14.227Z,12.20
2022-11-30T21:16:41.957Z,12.26
2022-11-30T21:19:10.751Z,12.20
2022-11-30T21:21:38.125Z,12.03
2022-11-30T21:24:06.751Z,12.03
2022-11-30T21:26:35.007Z,11.95
2022-11-30T21:29:06.949Z,11.92
2022-11-30T21:31:34.714Z,11.96
2022-11-30T21:34:02.000Z,11.70
2022-11-30T21:36:29.421Z,11.73
2022-11-30T21:39:04.388Z,11.27
2022-11-30T21:41:33.077Z,10.93
2022-11-30T21:44:00.649Z,11.32
2022-11-30T21:46:27.909Z,10.30
2022-11-30T21:48:55.205Z,9.56
2022-11-30T21:51:23.854Z,10.14
2022-11-30T21:53:52.471Z,10.58
2022-11-30T21:56:24.236Z,9.88
2022-11-30T21:58:51.846Z,9.83
2022-11-30T22:01:23.473Z,10.56
2022-11-30T22:03:51.065Z,10.13
2022-11-30T22:06:18.911Z,10.12
2022-11-30T22:08:46.330Z,9.87
2022-11-30T22:11:17.961Z,9.96
2022-11-30T22:13:45.317Z,9.10
2022-11-30T22:16:13.929Z,9.10
2022-11-30T22:18:41.637Z,9.50
2022-11-30T22:21:10.083Z,10.02
2022-11-30T22:23:38.077Z,10.75
2022-11-30T22:26:21.677Z,10.57
2022-11-30T22:28:49.837Z,10.80
2022-11-30T22:31:18.301Z,10.90
2022-11-30T22:33:45.549Z,11.00
2022-11-30T22:36:17.126Z,11.13
2022-11-30T22:38:44.760Z,11.11
2022-11-30T22:41:13.121Z,11.11
2022-11-30T22:43:40.497Z,10.93
2022-11-30T22:46:09.106Z,10.26
2022-11-30T22:48:36.440Z,10.77
2022-11-30T22:51:04.568Z,10.82
2022-11-30T22:53:32.999Z,10.91
2022-11-30T22:56:01.146Z,10.60
2022-11-30T22:58:28.584Z,10.48
2022-11-30T23:00:56.162Z,11.04
2022-11-30T23:03:24.637Z,11.13
2022-11-30T23:05:52.125Z,10.72
2022-11-30T23:08:19.813Z,11.06
2022-11-30T23:10:47.185Z,10.93
2022-11-30T23:13:14.358Z,10.87
2022-11-30T23:15:41.973Z,10.88
2022-11-30T23:18:09.942Z,10.85
2022-11-30T23:20:37.175Z,10.33
2022-11-30T23:23:04.653Z,10.27
2022-11-30T23:25:31.967Z,10.46
2022-11-30T23:27:59.302Z,10.11
2022-11-30T23:30:27.015Z,10.62
2022-11-30T23:32:57.264Z,10.91
2022-11-30T23:35:24.690Z,10.79
2022-11-30T23:37:52.466Z,9.50
2022-11-30T23:40:20.082Z,10.13
2022-11-30T23:42:47.352Z,9.78
2022-11-30T23:45:17.583Z,8.63
2022-11-30T23:47:44.756Z,9.85
2022-11-30T23:50:12.019Z,10.23
2022-11-30T23:52:39.509Z,9.39
2022-11-30T23:55:07.151Z,9.66
2022-11-30T23:57:34.367Z,9.08
